sensor_id;sensor_type;location;lat;lon;timestamp;P1;durP1;ratioP1;P2;durP2;ratioP2
25667;SDS011;18003;-33.830;151.202;2023-12-20T00:02:26;12.45;;;3.37;;
25667;SDS011;18003;-33.830;151.202;2023-12-20T00:04:56;6.65;;;2.60;;
25667;SDS011;18003;-33.830;151.202;2023-12-20T00:07:26;10.23;;;2.52;;
25667;SDS011;18003;-33.830;151.202;2023-12-20T00:09:56;9.83;;;2.90;;
25667;SDS011;18003;-33.830;151.202;2023-12-20T00:12:25;10.32;;;2.67;;
25667;SDS011;18003;-33.830;151.202;2023-12-20T00:14:55;7.58;;;3.00;;
25667;SDS011;18003;-33.830;151.202;2023-12-20T00:17:25;6.45;;;2.83;;
25667;SDS011;18003;-33.830;151.202;2023-12-20T00:19:55;7.17;;;2.70;;
25667;SDS011;18003;-33.830;151.202;2023-12-20T00:22:34;5.58;;;2.50;;
25667;SDS011;18003;-33.830;151.202;2023-12-20T00:25:04;6.47;;;2.42;;
25667;SDS011;18003;-33.830;151.202;2023-12-20T00:27:34;6.17;;;2.80;;
25667;SDS011;18003;-33.830;151.202;2023-12-20T00:30:04;4.87;;;2.50;;
25667;SDS011;18003;-33.830;151.202;2023-12-20T00:32:35;4.42;;;2.10;;
25667;SDS011;18003;-33.830;151.202;2023-12-20T00:35:04;4.65;;;2.80;;
25667;SDS011;18003;-33.830;151.202;2023-12-20T00:37:35;5.92;;;2.70;;
25667;SDS011;18003;-33.830;151.202;2023-12-20T00:40:05;3.35;;;2.70;;
25667;SDS011;18003;-33.830;151.202;2023-12-20T00:42:35;5.10;;;2.87;;
25667;SDS011;18003;-33.830;151.202;2023-12-20T00:45:05;7.05;;;3.30;;
25667;SDS011;18003;-33.830;151.202;2023-12-20T00:47:35;5.58;;;2.70;;
25667;SDS011;18003;-33.830;151.202;2023-12-20T00:50:05;4.72;;;2.33;;
25667;SDS011;18003;-33.830;151.202;2023-12-20T00:52:36;4.40;;;2.40;;
25667;SDS011;18003;-33.830;151.202;2023-12-20T00:55:06;4.58;;;2.92;;
25667;SDS011;18003;-33.830;151.202;2023-12-20T00:57:36;4.35;;;2.40;;
25667;SDS011;18003;-33.830;151.202;2023-12-20T01:00:06;8.80;;;2.72;;
25667;SDS011;18003;-33.830;151.202;2023-12-20T01:02:39;9.13;;;3.08;;
25667;SDS011;18003;-33.830;151.202;2023-12-20T01:05:09;6.25;;;2.92;;
25667;SDS011;18003;-33.830;151.202;2023-12-20T01:07:39;9.00;;;2.87;;
25667;SDS011;18003;-33.830;151.202;2023-12-20T01:10:09;3.87;;;2.40;;
25667;SDS011;18003;-33.830;151.202;2023-12-20T01:12:38;5.50;;;3.08;;
25667;SDS011;18003;-33.830;151.202;2023-12-20T01:15:08;7.90;;;3.30;;
25667;SDS011;18003;-33.830;151.202;2023-12-20T01:17:38;4.37;;;2.90;;
25667;SDS011;18003;-33.830;151.202;2023-12-20T01:20:09;4.78;;;2.85;;
25667;SDS011;18003;-33.830;151.202;2023-12-20T01:22:39;4.83;;;3.20;;
25667;SDS011;18003;-33.830;151.202;2023-12-20T01:25:09;5.17;;;3.20;;
25667;SDS011;18003;-33.830;151.202;2023-12-20T01:27:39;4.60;;;3.10;;
25667;SDS011;18003;-33.830;151.202;2023-12-20T01:30:09;5.92;;;3.37;;
25667;SDS011;18003;-33.830;151.202;2023-12-20T01:32:39;3.80;;;3.50;;
25667;SDS011;18003;-33.830;151.202;2023-12-20T01:35:09;4.45;;;3.10;;
25667;SDS011;18003;-33.830;151.202;2023-12-20T01:37:39;6.30;;;3.20;;
25667;SDS011;18003;-33.830;151.202;2023-12-20T01:40:09;3.83;;;3.27;;
25667;SDS011;18003;-33.830;151.202;2023-12-20T01:42:39;9.55;;;3.65;;
25667;SDS011;18003;-33.830;151.202;2023-12-20T01:45:09;9.13;;;3.70;;
25667;SDS011;18003;-33.830;151.202;2023-12-20T01:47:39;4.50;;;3.30;;
25667;SDS011;18003;-33.830;151.202;2023-12-20T01:50:09;5.35;;;3.47;;
25667;SDS011;18003;-33.830;151.202;2023-12-20T01:52:38;4.90;;;3.77;;
25667;SDS011;18003;-33.830;151.202;2023-12-20T01:55:09;6.05;;;3.60;;
25667;SDS011;18003;-33.830;151.202;2023-12-20T01:57:45;6.85;;;3.80;;
25667;SDS011;18003;-33.830;151.202;2023-12-20T02:00:11;4.67;;;3.55;;
25667;SDS011;18003;-33.830;151.202;2023-12-20T02:02:42;6.72;;;3.42;;
25667;SDS011;18003;-33.830;151.202;2023-12-20T02:05:13;5.25;;;3.50;;
25667;SDS011;18003;-33.830;151.202;2023-12-20T02:07:43;3.72;;;3.10;;
25667;SDS011;18003;-33.830;151.202;2023-12-20T02:10:12;4.60;;;3.00;;
25667;SDS011;18003;-33.830;151.202;2023-12-20T02:12:43;9.35;;;3.92;;
25667;SDS011;18003;-33.830;151.202;2023-12-20T02:15:13;6.33;;;3.55;;
25667;SDS011;18003;-33.830;151.202;2023-12-20T02:17:43;9.33;;;3.70;;
25667;SDS011;18003;-33.830;151.202;2023-12-20T02:20:14;6.53;;;3.50;;
25667;SDS011;18003;-33.830;151.202;2023-12-20T02:22:44;8.65;;;3.90;;
25667;SDS011;18003;-33.830;151.202;2023-12-20T02:25:14;4.67;;;3.47;;
25667;SDS011;18003;-33.830;151.202;2023-12-20T02:27:44;4.37;;;3.30;;
25667;SDS011;18003;-33.830;151.202;2023-12-20T02:30:14;7.67;;;4.35;;
25667;SDS011;18003;-33.830;151.202;2023-12-20T02:32:44;13.15;;;5.00;;
25667;SDS011;18003;-33.830;151.202;2023-12-20T02:35:13;14.65;;;5.72;;
25667;SDS011;18003;-33.830;151.202;2023-12-20T02:37:43;16.05;;;6.35;;
25667;SDS011;18003;-33.830;151.202;2023-12-20T02:40:13;19.60;;;6.75;;
25667;SDS011;18003;-33.830;151.202;2023-12-20T02:42:43;13.32;;;6.25;;
25667;SDS011;18003;-33.830;151.202;2023-12-20T02:45:13;10.85;;;5.10;;
25667;SDS011;18003;-33.830;151.202;2023-12-20T02:47:43;10.32;;;5.10;;
25667;SDS011;18003;-33.830;151.202;2023-12-20T02:50:12;10.08;;;6.22;;
25667;SDS011;18003;-33.830;151.202;2023-12-20T02:55:15;6.42;;;3.72;;
25667;SDS011;18003;-33.830;151.202;2023-12-20T02:57:45;11.60;;;3.70;;
25667;SDS011;18003;-33.830;151.202;2023-12-20T03:00:15;6.67;;;3.50;;
25667;SDS011;18003;-33.830;151.202;2023-12-20T03:02:45;4.53;;;3.45;;
25667;SDS011;18003;-33.830;151.202;2023-12-20T03:05:15;3.92;;;3.30;;
25667;SDS011;18003;-33.830;151.202;2023-12-20T03:07:45;3.67;;;3.25;;
25667;SDS011;18003;-33.830;151.202;2023-12-20T03:10:15;5.03;;;3.20;;
25667;SDS011;18003;-33.830;151.202;2023-12-20T03:12:45;4.83;;;3.10;;
25667;SDS011;18003;-33.830;151.202;2023-12-20T03:15:14;5.65;;;3.40;;
25667;SDS011;18003;-33.830;151.202;2023-12-20T03:17:44;6.15;;;3.37;;
25667;SDS011;18003;-33.830;151.202;2023-12-20T03:20:14;5.95;;;3.25;;
25667;SDS011;18003;-33.830;151.202;2023-12-20T03:22:44;5.25;;;3.20;;
25667;SDS011;18003;-33.830;151.202;2023-12-20T03:25:13;4.15;;;3.00;;
25667;SDS011;18003;-33.830;151.202;2023-12-20T03:27:43;4.85;;;3.22;;
25667;SDS011;18003;-33.830;151.202;2023-12-20T03:30:13;4.90;;;2.92;;
25667;SDS011;18003;-33.830;151.202;2023-12-20T03:32:43;4.78;;;3.27;;
25667;SDS011;18003;-33.830;151.202;2023-12-20T03:35:13;6.05;;;3.08;;
25667;SDS011;18003;-33.830;151.202;2023-12-20T03:37:43;5.58;;;2.95;;
25667;SDS011;18003;-33.830;151.202;2023-12-20T03:40:12;4.28;;;3.12;;
25667;SDS011;18003;-33.830;151.202;2023-12-20T03:42:42;6.58;;;2.98;;
25667;SDS011;18003;-33.830;151.202;2023-12-20T03:45:13;5.83;;;3.20;;
25667;SDS011;18003;-33.830;151.202;2023-12-20T03:47:43;4.65;;;3.10;;
25667;SDS011;18003;-33.830;151.202;2023-12-20T03:50:13;5.12;;;3.55;;
25667;SDS011;18003;-33.830;151.202;2023-12-20T03:52:42;5.35;;;3.20;;
25667;SDS011;18003;-33.830;151.202;2023-12-20T03:55:13;5.20;;;3.30;;
25667;SDS011;18003;-33.830;151.202;2023-12-20T03:57:43;5.93;;;3.10;;
25667;SDS011;18003;-33.830;151.202;2023-12-20T04:00:13;5.75;;;3.30;;
25667;SDS011;18003;-33.830;151.202;2023-12-20T04:02:43;5.60;;;3.00;;
25667;SDS011;18003;-33.830;151.202;2023-12-20T04:05:13;4.72;;;2.90;;
25667;SDS011;18003;-33.830;151.202;2023-12-20T04:07:45;4.85;;;2.95;;
25667;SDS011;18003;-33.830;151.202;2023-12-20T04:10:13;5.97;;;2.98;;
25667;SDS011;18003;-33.830;151.202;2023-12-20T04:12:43;4.42;;;3.02;;
25667;SDS011;18003;-33.830;151.202;2023-12-20T04:15:13;4.08;;;2.80;;
25667;SDS011;18003;-33.830;151.202;2023-12-20T04:17:42;3.20;;;2.85;;
25667;SDS011;18003;-33.830;151.202;2023-12-20T04:20:12;3.85;;;2.90;;
25667;SDS011;18003;-33.830;151.202;2023-12-20T04:22:42;4.17;;;2.90;;
25667;SDS011;18003;-33.830;151.202;2023-12-20T04:25:12;3.08;;;2.83;;
25667;SDS011;18003;-33.830;151.202;2023-12-20T04:27:42;2.90;;;2.60;;
25667;SDS011;18003;-33.830;151.202;2023-12-20T04:30:11;3.77;;;2.37;;
25667;SDS011;18003;-33.830;151.202;2023-12-20T04:32:41;2.87;;;2.50;;
25667;SDS011;18003;-33.830;151.202;2023-12-20T04:35:11;3.87;;;2.40;;
25667;SDS011;18003;-33.830;151.202;2023-12-20T04:37:41;3.08;;;2.30;;
25667;SDS011;18003;-33.830;151.202;2023-12-20T04:40:11;4.25;;;2.90;;
25667;SDS011;18003;-33.830;151.202;2023-12-20T04:42:40;4.22;;;2.33;;
25667;SDS011;18003;-33.830;151.202;2023-12-20T04:45:10;4.17;;;2.50;;
25667;SDS011;18003;-33.830;151.202;2023-12-20T04:47:44;5.15;;;2.45;;
25667;SDS011;18003;-33.830;151.202;2023-12-20T04:50:14;3.20;;;2.30;;
25667;SDS011;18003;-33.830;151.202;2023-12-20T04:52:44;4.53;;;2.25;;
25667;SDS011;18003;-33.830;151.202;2023-12-20T04:55:14;3.33;;;2.27;;
25667;SDS011;18003;-33.830;151.202;2023-12-20T04:57:44;5.47;;;2.35;;
25667;SDS011;18003;-33.830;151.202;2023-12-20T05:00:14;5.40;;;2.10;;
25667;SDS011;18003;-33.830;151.202;2023-12-20T05:02:44;5.10;;;2.62;;
25667;SDS011;18003;-33.830;151.202;2023-12-20T05:05:14;4.42;;;2.40;;
25667;SDS011;18003;-33.830;151.202;2023-12-20T05:07:44;3.85;;;2.60;;
25667;SDS011;18003;-33.830;151.202;2023-12-20T05:10:14;2.35;;;2.02;;
25667;SDS011;18003;-33.830;151.202;2023-12-20T05:12:44;6.33;;;2.30;;
25667;SDS011;18003;-33.830;151.202;2023-12-20T05:15:13;5.95;;;2.60;;
25667;SDS011;18003;-33.830;151.202;2023-12-20T05:17:43;6.20;;;2.42;;
25667;SDS011;18003;-33.830;151.202;2023-12-20T05:20:13;4.50;;;2.77;;
25667;SDS011;18003;-33.830;151.202;2023-12-20T05:25:31;4.78;;;2.67;;
25667;SDS011;18003;-33.830;151.202;2023-12-20T05:28:01;5.87;;;2.70;;
25667;SDS011;18003;-33.830;151.202;2023-12-20T05:30:31;4.87;;;2.65;;
25667;SDS011;18003;-33.830;151.202;2023-12-20T05:33:08;4.80;;;2.60;;
25667;SDS011;18003;-33.830;151.202;2023-12-20T05:35:44;6.17;;;2.70;;
25667;SDS011;18003;-33.830;151.202;2023-12-20T05:41:06;4.67;;;2.12;;
25667;SDS011;18003;-33.830;151.202;2023-12-20T05:43:32;3.55;;;2.45;;
25667;SDS011;18003;-33.830;151.202;2023-12-20T05:46:01;3.67;;;2.40;;
25667;SDS011;18003;-33.830;151.202;2023-12-20T05:48:31;4.10;;;2.58;;
25667;SDS011;18003;-33.830;151.202;2023-12-20T05:51:01;4.90;;;2.67;;
25667;SDS011;18003;-33.830;151.202;2023-12-20T05:53:31;5.08;;;2.80;;
25667;SDS011;18003;-33.830;151.202;2023-12-20T05:56:01;9.88;;;3.55;;
25667;SDS011;18003;-33.830;151.202;2023-12-20T05:58:32;8.73;;;2.80;;
25667;SDS011;18003;-33.830;151.202;2023-12-20T06:01:07;6.85;;;3.00;;
25667;SDS011;18003;-33.830;151.202;2023-12-20T06:03:32;6.12;;;3.05;;
25667;SDS011;18003;-33.830;151.202;2023-12-20T06:06:11;3.83;;;2.58;;
25667;SDS011;18003;-33.830;151.202;2023-12-20T06:08:45;6.30;;;2.90;;
25667;SDS011;18003;-33.830;151.202;2023-12-20T06:11:16;11.25;;;3.47;;
25667;SDS011;18003;-33.830;151.202;2023-12-20T06:13:46;9.73;;;3.60;;
25667;SDS011;18003;-33.830;151.202;2023-12-20T06:16:17;10.35;;;3.62;;
25667;SDS011;18003;-33.830;151.202;2023-12-20T06:21:36;9.73;;;3.60;;
25667;SDS011;18003;-33.830;151.202;2023-12-20T06:24:06;8.85;;;3.62;;
25667;SDS011;18003;-33.830;151.202;2023-12-20T06:26:36;10.10;;;3.30;;
25667;SDS011;18003;-33.830;151.202;2023-12-20T06:29:06;8.25;;;3.50;;
25667;SDS011;18003;-33.830;151.202;2023-12-20T06:31:41;4.78;;;3.33;;
25667;SDS011;18003;-33.830;151.202;2023-12-20T06:36:55;5.47;;;2.98;;
25667;SDS011;18003;-33.830;151.202;2023-12-20T06:39:24;5.03;;;3.00;;
25667;SDS011;18003;-33.830;151.202;2023-12-20T06:41:54;5.53;;;3.35;;
25667;SDS011;18003;-33.830;151.202;2023-12-20T06:44:24;3.62;;;3.12;;
25667;SDS011;18003;-33.830;151.202;2023-12-20T06:46:54;6.83;;;3.10;;
25667;SDS011;18003;-33.830;151.202;2023-12-20T06:49:24;6.97;;;3.30;;
25667;SDS011;18003;-33.830;151.202;2023-12-20T06:51:53;5.40;;;2.83;;
25667;SDS011;18003;-33.830;151.202;2023-12-20T06:54:23;3.30;;;3.00;;
25667;SDS011;18003;-33.830;151.202;2023-12-20T06:56:53;4.37;;;2.90;;
25667;SDS011;18003;-33.830;151.202;2023-12-20T06:59:23;6.03;;;3.50;;
25667;SDS011;18003;-33.830;151.202;2023-12-20T07:01:52;5.78;;;3.17;;
25667;SDS011;18003;-33.830;151.202;2023-12-20T07:04:22;5.45;;;3.37;;
25667;SDS011;18003;-33.830;151.202;2023-12-20T07:06:52;6.77;;;3.50;;
25667;SDS011;18003;-33.830;151.202;2023-12-20T07:09:23;5.33;;;3.12;;
25667;SDS011;18003;-33.830;151.202;2023-12-20T07:11:52;6.00;;;3.20;;
25667;SDS011;18003;-33.830;151.202;2023-12-20T07:17:14;5.80;;;3.12;;
25667;SDS011;18003;-33.830;151.202;2023-12-20T07:19:44;7.25;;;3.10;;
25667;SDS011;18003;-33.830;151.202;2023-12-20T07:22:14;4.28;;;2.60;;
25667;SDS011;18003;-33.830;151.202;2023-12-20T07:24:43;7.42;;;3.08;;
25667;SDS011;18003;-33.830;151.202;2023-12-20T07:27:13;9.78;;;3.65;;
25667;SDS011;18003;-33.830;151.202;2023-12-20T07:29:43;8.15;;;3.55;;
25667;SDS011;18003;-33.830;151.202;2023-12-20T07:32:13;6.15;;;3.60;;
25667;SDS011;18003;-33.830;151.202;2023-12-20T07:34:43;9.90;;;3.65;;
25667;SDS011;18003;-33.830;151.202;2023-12-20T07:37:12;5.30;;;2.87;;
25667;SDS011;18003;-33.830;151.202;2023-12-20T07:39:42;6.75;;;3.15;;
25667;SDS011;18003;-33.830;151.202;2023-12-20T07:42:12;4.20;;;3.00;;
25667;SDS011;18003;-33.830;151.202;2023-12-20T07:44:42;6.40;;;3.33;;
25667;SDS011;18003;-33.830;151.202;2023-12-20T07:47:11;3.90;;;2.98;;
25667;SDS011;18003;-33.830;151.202;2023-12-20T07:49:42;10.18;;;3.70;;
25667;SDS011;18003;-33.830;151.202;2023-12-20T07:52:12;8.68;;;3.37;;
25667;SDS011;18003;-33.830;151.202;2023-12-20T07:54:42;8.03;;;3.50;;
25667;SDS011;18003;-33.830;151.202;2023-12-20T07:57:12;8.80;;;3.40;;
25667;SDS011;18003;-33.830;151.202;2023-12-20T07:59:41;4.87;;;3.10;;
25667;SDS011;18003;-33.830;151.202;2023-12-20T08:02:11;6.28;;;3.30;;
25667;SDS011;18003;-33.830;151.202;2023-12-20T08:04:41;5.53;;;3.17;;
25667;SDS011;18003;-33.830;151.202;2023-12-20T08:07:11;7.35;;;3.40;;
25667;SDS011;18003;-33.830;151.202;2023-12-20T08:09:41;5.95;;;3.10;;
25667;SDS011;18003;-33.830;151.202;2023-12-20T08:12:10;5.95;;;2.83;;
25667;SDS011;18003;-33.830;151.202;2023-12-20T08:14:40;6.75;;;2.95;;
25667;SDS011;18003;-33.830;151.202;2023-12-20T08:17:10;6.58;;;3.05;;
25667;SDS011;18003;-33.830;151.202;2023-12-20T08:19:41;5.97;;;2.40;;
25667;SDS011;18003;-33.830;151.202;2023-12-20T08:22:11;8.73;;;3.35;;
25667;SDS011;18003;-33.830;151.202;2023-12-20T08:24:40;8.05;;;3.10;;
25667;SDS011;18003;-33.830;151.202;2023-12-20T08:27:10;6.87;;;3.20;;
25667;SDS011;18003;-33.830;151.202;2023-12-20T08:29:40;5.50;;;2.90;;
25667;SDS011;18003;-33.830;151.202;2023-12-20T08:34:45;8.65;;;3.17;;
25667;SDS011;18003;-33.830;151.202;2023-12-20T08:37:15;6.62;;;2.90;;
25667;SDS011;18003;-33.830;151.202;2023-12-20T08:39:44;7.90;;;2.83;;
25667;SDS011;18003;-33.830;151.202;2023-12-20T08:42:14;6.15;;;3.02;;
25667;SDS011;18003;-33.830;151.202;2023-12-20T08:44:44;5.37;;;2.80;;
25667;SDS011;18003;-33.830;151.202;2023-12-20T08:47:14;5.50;;;2.90;;
25667;SDS011;18003;-33.830;151.202;2023-12-20T08:49:44;5.62;;;2.90;;
25667;SDS011;18003;-33.830;151.202;2023-12-20T08:52:13;5.12;;;2.87;;
25667;SDS011;18003;-33.830;151.202;2023-12-20T08:54:44;7.28;;;2.92;;
25667;SDS011;18003;-33.830;151.202;2023-12-20T08:57:13;6.80;;;3.05;;
25667;SDS011;18003;-33.830;151.202;2023-12-20T08:59:43;5.50;;;2.80;;
25667;SDS011;18003;-33.830;151.202;2023-12-20T09:02:13;6.03;;;2.90;;
25667;SDS011;18003;-33.830;151.202;2023-12-20T09:04:43;5.75;;;2.65;;
25667;SDS011;18003;-33.830;151.202;2023-12-20T09:09:55;5.25;;;3.62;;
25667;SDS011;18003;-33.830;151.202;2023-12-20T09:15:04;4.35;;;2.70;;
25667;SDS011;18003;-33.830;151.202;2023-12-20T09:20:27;5.97;;;3.30;;
25667;SDS011;18003;-33.830;151.202;2023-12-20T09:25:33;7.33;;;3.00;;
25667;SDS011;18003;-33.830;151.202;2023-12-20T09:28:03;5.95;;;3.08;;
25667;SDS011;18003;-33.830;151.202;2023-12-20T09:41:43;4.93;;;3.03;;
25667;SDS011;18003;-33.830;151.202;2023-12-20T09:46:49;5.42;;;2.98;;
25667;SDS011;18003;-33.830;151.202;2023-12-20T09:49:20;6.33;;;3.42;;
25667;SDS011;18003;-33.830;151.202;2023-12-20T09:51:50;3.55;;;2.87;;
25667;SDS011;18003;-33.830;151.202;2023-12-20T09:54:21;3.80;;;2.60;;
25667;SDS011;18003;-33.830;151.202;2023-12-20T09:56:51;5.10;;;2.80;;
25667;SDS011;18003;-33.830;151.202;2023-12-20T10:01:55;5.95;;;2.60;;
25667;SDS011;18003;-33.830;151.202;2023-12-20T10:04:25;5.35;;;2.62;;
25667;SDS011;18003;-33.830;151.202;2023-12-20T10:06:55;3.95;;;2.60;;
25667;SDS011;18003;-33.830;151.202;2023-12-20T10:09:26;6.30;;;3.20;;
25667;SDS011;18003;-33.830;151.202;2023-12-20T10:11:59;6.07;;;3.20;;
25667;SDS011;18003;-33.830;151.202;2023-12-20T10:14:34;4.28;;;2.67;;
25667;SDS011;18003;-33.830;151.202;2023-12-20T10:19:33;4.65;;;2.65;;
25667;SDS011;18003;-33.830;151.202;2023-12-20T10:22:04;5.53;;;2.70;;
25667;SDS011;18003;-33.830;151.202;2023-12-20T10:24:34;4.83;;;2.80;;
25667;SDS011;18003;-33.830;151.202;2023-12-20T10:27:04;5.28;;;2.87;;
25667;SDS011;18003;-33.830;151.202;2023-12-20T10:29:35;5.73;;;2.80;;
25667;SDS011;18003;-33.830;151.202;2023-12-20T10:32:26;6.85;;;2.80;;
25667;SDS011;18003;-33.830;151.202;2023-12-20T10:37:26;4.40;;;3.10;;
25667;SDS011;18003;-33.830;151.202;2023-12-20T10:39:55;7.72;;;3.00;;
25667;SDS011;18003;-33.830;151.202;2023-12-20T10:45:01;5.10;;;3.20;;
25667;SDS011;18003;-33.830;151.202;2023-12-20T10:47:27;5.55;;;3.40;;
25667;SDS011;18003;-33.830;151.202;2023-12-20T10:49:58;5.73;;;3.33;;
25667;SDS011;18003;-33.830;151.202;2023-12-20T10:54:59;6.08;;;2.98;;
25667;SDS011;18003;-33.830;151.202;2023-12-20T10:57:28;4.05;;;2.80;;
25667;SDS011;18003;-33.830;151.202;2023-12-20T11:05:33;7.22;;;2.90;;
25667;SDS011;18003;-33.830;151.202;2023-12-20T11:16:37;4.42;;;2.95;;
25667;SDS011;18003;-33.830;151.202;2023-12-20T11:19:08;6.03;;;3.35;;
25667;SDS011;18003;-33.830;151.202;2023-12-20T11:21:40;4.75;;;3.10;;
25667;SDS011;18003;-33.830;151.202;2023-12-20T11:24:10;4.80;;;3.30;;
25667;SDS011;18003;-33.830;151.202;2023-12-20T11:26:41;6.97;;;3.20;;
25667;SDS011;18003;-33.830;151.202;2023-12-20T11:32:27;4.17;;;3.00;;
25667;SDS011;18003;-33.830;151.202;2023-12-20T11:34:33;7.12;;;3.33;;
25667;SDS011;18003;-33.830;151.202;2023-12-20T11:37:03;6.73;;;3.20;;
25667;SDS011;18003;-33.830;151.202;2023-12-20T11:39:33;5.58;;;3.20;;
25667;SDS011;18003;-33.830;151.202;2023-12-20T11:42:06;5.22;;;3.62;;
25667;SDS011;18003;-33.830;151.202;2023-12-20T11:44:37;7.92;;;3.00;;
25667;SDS011;18003;-33.830;151.202;2023-12-20T11:47:07;5.67;;;3.10;;
25667;SDS011;18003;-33.830;151.202;2023-12-20T11:49:38;4.65;;;3.17;;
25667;SDS011;18003;-33.830;151.202;2023-12-20T11:52:08;3.67;;;3.12;;
25667;SDS011;18003;-33.830;151.202;2023-12-20T11:54:39;6.28;;;3.37;;
25667;SDS011;18003;-33.830;151.202;2023-12-20T11:57:09;5.00;;;3.17;;
25667;SDS011;18003;-33.830;151.202;2023-12-20T11:59:39;4.83;;;3.02;;
25667;SDS011;18003;-33.830;151.202;2023-12-20T12:02:11;6.00;;;3.30;;
25667;SDS011;18003;-33.830;151.202;2023-12-20T12:04:43;4.92;;;3.15;;
25667;SDS011;18003;-33.830;151.202;2023-12-20T12:07:14;4.00;;;3.17;;
25667;SDS011;18003;-33.830;151.202;2023-12-20T12:09:44;3.67;;;2.70;;
25667;SDS011;18003;-33.830;151.202;2023-12-20T12:12:14;3.45;;;2.30;;
25667;SDS011;18003;-33.830;151.202;2023-12-20T12:14:44;4.80;;;2.80;;
25667;SDS011;18003;-33.830;151.202;2023-12-20T12:17:15;3.30;;;2.47;;
25667;SDS011;18003;-33.830;151.202;2023-12-20T12:19:45;4.00;;;2.70;;
25667;SDS011;18003;-33.830;151.202;2023-12-20T12:22:15;4.93;;;2.67;;
25667;SDS011;18003;-33.830;151.202;2023-12-20T12:24:46;3.77;;;3.12;;
25667;SDS011;18003;-33.830;151.202;2023-12-20T12:27:16;4.67;;;2.67;;
25667;SDS011;18003;-33.830;151.202;2023-12-20T12:30:04;3.42;;;2.98;;
25667;SDS011;18003;-33.830;151.202;2023-12-20T12:32:31;2.95;;;2.65;;
25667;SDS011;18003;-33.830;151.202;2023-12-20T12:37:50;4.62;;;2.83;;
25667;SDS011;18003;-33.830;151.202;2023-12-20T12:40:20;3.35;;;3.15;;
25667;SDS011;18003;-33.830;151.202;2023-12-20T12:42:50;3.25;;;2.95;;
25667;SDS011;18003;-33.830;151.202;2023-12-20T12:45:20;3.37;;;3.03;;
25667;SDS011;18003;-33.830;151.202;2023-12-20T12:47:51;3.37;;;2.90;;
25667;SDS011;18003;-33.830;151.202;2023-12-20T12:50:25;3.12;;;2.60;;
25667;SDS011;18003;-33.830;151.202;2023-12-20T12:52:55;3.20;;;2.77;;
25667;SDS011;18003;-33.830;151.202;2023-12-20T12:55:25;3.00;;;2.77;;
25667;SDS011;18003;-33.830;151.202;2023-12-20T12:57:55;3.47;;;2.80;;
25667;SDS011;18003;-33.830;151.202;2023-12-20T13:00:25;4.33;;;2.80;;
25667;SDS011;18003;-33.830;151.202;2023-12-20T13:02:55;5.72;;;2.90;;
25667;SDS011;18003;-33.830;151.202;2023-12-20T13:05:25;4.75;;;2.90;;
25667;SDS011;18003;-33.830;151.202;2023-12-20T13:07:54;4.55;;;2.70;;
25667;SDS011;18003;-33.830;151.202;2023-12-20T13:10:25;3.75;;;2.90;;
25667;SDS011;18003;-33.830;151.202;2023-12-20T13:12:54;4.92;;;2.50;;
25667;SDS011;18003;-33.830;151.202;2023-12-20T13:15:45;2.92;;;2.65;;
25667;SDS011;18003;-33.830;151.202;2023-12-20T13:18:16;3.35;;;2.52;;
25667;SDS011;18003;-33.830;151.202;2023-12-20T13:20:49;5.28;;;2.67;;
25667;SDS011;18003;-33.830;151.202;2023-12-20T13:23:22;4.05;;;2.70;;
25667;SDS011;18003;-33.830;151.202;2023-12-20T13:25:52;4.15;;;2.42;;
25667;SDS011;18003;-33.830;151.202;2023-12-20T13:28:22;3.60;;;2.70;;
25667;SDS011;18003;-33.830;151.202;2023-12-20T13:30:51;3.10;;;2.30;;
25667;SDS011;18003;-33.830;151.202;2023-12-20T13:39:16;3.00;;;2.67;;
25667;SDS011;18003;-33.830;151.202;2023-12-20T13:47:23;2.77;;;2.50;;
25667;SDS011;18003;-33.830;151.202;2023-12-20T13:49:52;4.78;;;2.45;;
25667;SDS011;18003;-33.830;151.202;2023-12-20T13:52:22;2.42;;;2.05;;
25667;SDS011;18003;-33.830;151.202;2023-12-20T13:54:52;6.15;;;2.20;;
25667;SDS011;18003;-33.830;151.202;2023-12-20T13:57:22;4.40;;;2.10;;
25667;SDS011;18003;-33.830;151.202;2023-12-20T13:59:52;2.20;;;2.00;;
25667;SDS011;18003;-33.830;151.202;2023-12-20T14:02:23;2.55;;;2.02;;
25667;SDS011;18003;-33.830;151.202;2023-12-20T14:10:32;2.00;;;1.90;;
25667;SDS011;18003;-33.830;151.202;2023-12-20T14:13:02;4.25;;;2.30;;
25667;SDS011;18003;-33.830;151.202;2023-12-20T14:15:32;2.65;;;2.45;;
25667;SDS011;18003;-33.830;151.202;2023-12-20T14:18:07;3.30;;;2.00;;
25667;SDS011;18003;-33.830;151.202;2023-12-20T14:20:34;2.20;;;2.10;;
25667;SDS011;18003;-33.830;151.202;2023-12-20T14:25:53;2.62;;;2.10;;
25667;SDS011;18003;-33.830;151.202;2023-12-20T14:28:24;2.12;;;1.87;;
25667;SDS011;18003;-33.830;151.202;2023-12-20T14:33:45;2.30;;;2.10;;
25667;SDS011;18003;-33.830;151.202;2023-12-20T14:36:16;3.45;;;2.30;;
25667;SDS011;18003;-33.830;151.202;2023-12-20T14:38:47;2.90;;;2.00;;
25667;SDS011;18003;-33.830;151.202;2023-12-20T14:41:17;2.05;;;1.95;;
25667;SDS011;18003;-33.830;151.202;2023-12-20T14:43:47;3.80;;;2.30;;
25667;SDS011;18003;-33.830;151.202;2023-12-20T14:46:17;2.00;;;1.90;;
25667;SDS011;18003;-33.830;151.202;2023-12-20T14:48:52;1.90;;;1.80;;
25667;SDS011;18003;-33.830;151.202;2023-12-20T14:54:02;2.00;;;1.90;;
25667;SDS011;18003;-33.830;151.202;2023-12-20T14:59:31;2.80;;;2.15;;
25667;SDS011;18003;-33.830;151.202;2023-12-20T15:04:43;2.00;;;1.90;;
25667;SDS011;18003;-33.830;151.202;2023-12-20T15:07:19;5.25;;;1.95;;
25667;SDS011;18003;-33.830;151.202;2023-12-20T15:09:48;2.40;;;1.90;;
25667;SDS011;18003;-33.830;151.202;2023-12-20T15:12:17;2.27;;;2.00;;
25667;SDS011;18003;-33.830;151.202;2023-12-20T15:14:49;2.20;;;2.00;;
25667;SDS011;18003;-33.830;151.202;2023-12-20T15:17:19;2.25;;;2.00;;
25667;SDS011;18003;-33.830;151.202;2023-12-20T15:19:49;1.87;;;1.80;;
25667;SDS011;18003;-33.830;151.202;2023-12-20T15:25:13;2.10;;;2.00;;
25667;SDS011;18003;-33.830;151.202;2023-12-20T15:27:45;2.10;;;2.00;;
25667;SDS011;18003;-33.830;151.202;2023-12-20T15:30:16;2.42;;;2.10;;
25667;SDS011;18003;-33.830;151.202;2023-12-20T15:32:46;2.33;;;2.10;;
25667;SDS011;18003;-33.830;151.202;2023-12-20T15:35:15;2.87;;;2.08;;
25667;SDS011;18003;-33.830;151.202;2023-12-20T15:37:48;4.83;;;2.22;;
25667;SDS011;18003;-33.830;151.202;2023-12-20T15:43:10;2.20;;;2.00;;
25667;SDS011;18003;-33.830;151.202;2023-12-20T15:48:46;2.17;;;2.08;;
25667;SDS011;18003;-33.830;151.202;2023-12-20T15:51:17;2.20;;;2.00;;
25667;SDS011;18003;-33.830;151.202;2023-12-20T15:53:48;3.47;;;1.92;;
25667;SDS011;18003;-33.830;151.202;2023-12-20T16:02:04;2.08;;;1.82;;
25667;SDS011;18003;-33.830;151.202;2023-12-20T16:04:34;2.80;;;1.80;;
25667;SDS011;18003;-33.830;151.202;2023-12-20T16:07:07;2.52;;;1.80;;
25667;SDS011;18003;-33.830;151.202;2023-12-20T16:09:36;2.22;;;1.70;;
25667;SDS011;18003;-33.830;151.202;2023-12-20T16:18:25;2.75;;;2.00;;
25667;SDS011;18003;-33.830;151.202;2023-12-20T16:26:35;2.10;;;2.00;;
25667;SDS011;18003;-33.830;151.202;2023-12-20T16:29:05;2.10;;;2.00;;
25667;SDS011;18003;-33.830;151.202;2023-12-20T16:31:34;2.42;;;2.17;;
25667;SDS011;18003;-33.830;151.202;2023-12-20T16:34:04;2.60;;;2.20;;
25667;SDS011;18003;-33.830;151.202;2023-12-20T16:36:55;1.80;;;1.80;;
25667;SDS011;18003;-33.830;151.202;2023-12-20T16:39:18;2.10;;;2.00;;
25667;SDS011;18003;-33.830;151.202;2023-12-20T16:41:51;2.60;;;1.90;;